KGMU/GMU METAR and TAF weather

Enter ICAO airport designator
Station Type Date Time Source
KGMU METAR 2019/08/21 01:53 UTC NOAA

KGMU 210153Z 00000KT 10SM CLR 24/23 A3012 RMK AO2 SLP189 T02390228


Station Type Date Time Source
KGMU Decoded METAR 2019/08/21 01:53 UTC NOAA

Station name not available
Aug 20, 2019 - 09:53 PM EDT / 2019.08.21 0153 UTC
Wind: Calm:0
Visibility: 10 mile(s):0
Sky conditions: clear
Temperature: 75.0 F (23.9 C)
Dew Point: 73.0 F (22.8 C)
Relative Humidity: 93%
Pressure (altimeter): 30.12 in. Hg (1019 hPa)
ob: KGMU 210153Z 00000KT 10SM CLR 24/23 A3012 RMK AO2 SLP189 T02390228
cycle: 2

Station Type Date Time Source
KGMU TAF 2019/08/20 18:42 UTC NOAA

TAF KGMU 201739Z 2018/2118 13006KT P6SM -SHRA BKN030 BKN050
TEMPO 2021/2024 4SM TSRA OVC025CB
FM210000 16004KT P6SM VCTS BKN060CB
FM210300 21003KT P6SM VCSH SCT050 BKN100
FM211100 23004KT 5SM BR FEW050 BKN100
FM211300 23005KT P6SM VCSH SCT100

Example: see airport list